Time;durP1;ratioP1;P1;durP2;ratioP2;P2;SDS_P1;SDS_P2;PMS_P1;PMS_P2;Temp;Humidity;BMP_temperature;BMP_pressure;BME280_temperature;BME280_humidity;BME280_pressure;Samples;Min_cycle;Max_cycle;Signal;HPM_P1;HPM_P2
2023/04/20 00:00:10;;;;;;;1.05;0.30;;;6.00;99.90;;;;;;5037740;28;20075;-82
2023/04/20 00:02:40;;;;;;;0.90;0.30;;;6.00;99.90;;;;;;5056162;28;20024;-81
2023/04/20 00:05:06;;;;;;;1.15;0.30;;;5.90;99.90;;;;;;5039377;28;20097;-83
2023/04/20 00:07:32;;;;;;;0.68;0.20;;;5.90;99.90;;;;;;5054827;28;20035;-82
2023/04/20 00:09:59;;;;;;;0.73;0.20;;;5.80;99.90;;;;;;5039601;28;20036;-83
2023/04/20 00:12:24;;;;;;;1.75;0.30;;;5.80;99.90;;;;;;5036976;28;20032;-83
2023/04/20 00:14:50;;;;;;;1.88;0.40;;;5.90;99.90;;;;;;5031753;28;20024;-82
2023/04/20 00:17:16;;;;;;;1.42;0.30;;;5.80;99.90;;;;;;5038751;28;20107;-82
2023/04/20 00:19:42;;;;;;;1.80;0.30;;;5.80;99.90;;;;;;5051338;28;20032;-82
2023/04/20 00:22:08;;;;;;;1.20;0.30;;;5.90;99.90;;;;;;5050636;28;20043;-82
2023/04/20 00:24:34;;;;;;;3.25;0.60;;;5.80;99.90;;;;;;5038636;28;20060;-82
2023/04/20 00:26:59;;;;;;;2.70;0.38;;;5.80;99.90;;;;;;5041142;28;20487;-83
2023/04/20 00:29:25;;;;;;;1.08;0.32;;;5.80;99.90;;;;;;5041277;28;20024;-83
2023/04/20 00:31:51;;;;;;;2.25;0.30;;;5.80;99.90;;;;;;5038945;28;20127;-84
2023/04/20 00:34:16;;;;;;;1.35;0.30;;;5.80;99.90;;;;;;5037389;28;20384;-83
2023/04/20 00:36:43;;;;;;;1.45;0.47;;;5.80;99.90;;;;;;5036285;28;20032;-83
2023/04/20 00:39:09;;;;;;;3.60;0.40;;;5.90;99.90;;;;;;5055852;28;20041;-82
2023/04/20 00:41:35;;;;;;;1.25;0.35;;;5.90;99.90;;;;;;5057621;28;20028;-82
2023/04/20 00:44:01;;;;;;;3.05;0.35;;;5.80;99.90;;;;;;5040418;28;20025;-83
2023/04/20 00:46:26;;;;;;;2.17;0.40;;;5.80;99.90;;;;;;5053125;28;20477;-83
2023/04/20 00:48:53;;;;;;;1.60;0.50;;;5.80;99.90;;;;;;5039939;28;20024;-82
2023/04/20 00:51:22;;;;;;;1.00;0.40;;;5.80;99.90;;;;;;5033630;28;20032;-82
2023/04/20 00:53:48;;;;;;;2.20;0.40;;;5.80;99.90;;;;;;5037687;28;20036;-82
2023/04/20 00:56:15;;;;;;;3.50;0.50;;;5.80;99.90;;;;;;5038395;28;20036;-83
2023/04/20 00:58:45;;;;;;;1.75;0.70;;;5.90;99.90;;;;;;5066463;28;20024;-82
2023/04/20 01:01:11;;;;;;;2.15;0.50;;;5.90;99.90;;;;;;5062617;28;20469;-83
2023/04/20 01:03:38;;;;;;;2.88;0.60;;;5.90;99.90;;;;;;5039012;28;20029;-82
2023/04/20 01:06:05;;;;;;;2.47;0.52;;;5.90;99.90;;;;;;5037889;28;20504;-83
2023/04/20 01:08:30;;;;;;;1.98;0.55;;;5.80;99.90;;;;;;5056184;28;20032;-83
2023/04/20 01:10:56;;;;;;;3.60;0.80;;;5.90;99.90;;;;;;5053561;28;20037;-82
2023/04/20 01:13:22;;;;;;;3.05;1.00;;;6.00;99.90;;;;;;5034363;28;20021;-82
2023/04/20 01:15:48;;;;;;;2.17;0.80;;;6.10;99.90;;;;;;5040249;28;20032;-83
2023/04/20 01:18:16;;;;;;;3.72;0.90;;;6.20;99.90;;;;;;5049869;28;20031;-83
2023/04/20 01:20:42;;;;;;;2.53;0.60;;;6.20;99.90;;;;;;5037271;28;20024;-83
2023/04/20 01:23:08;;;;;;;2.70;0.60;;;6.20;99.90;;;;;;5036871;28;20025;-82
2023/04/20 01:25:35;;;;;;;2.90;0.60;;;6.30;99.90;;;;;;5037175;28;20032;-82
2023/04/20 01:28:00;;;;;;;2.25;0.57;;;6.30;99.90;;;;;;5036044;28;20044;-82
2023/04/20 01:30:28;;;;;;;1.98;0.50;;;6.20;99.90;;;;;;5032583;28;20106;-82
2023/04/20 01:32:54;;;;;;;3.22;0.52;;;6.20;99.90;;;;;;5034890;28;20376;-83
2023/04/20 01:35:21;;;;;;;2.10;0.70;;;6.20;99.90;;;;;;5033443;28;20028;-82
2023/04/20 01:37:47;;;;;;;1.33;0.50;;;6.20;99.90;;;;;;5035920;28;20020;-83
2023/04/20 01:40:13;;;;;;;1.60;0.50;;;6.10;99.90;;;;;;5033415;28;20522;-83
2023/04/20 01:42:39;;;;;;;1.38;0.50;;;6.10;99.90;;;;;;5056098;28;20020;-82
2023/04/20 01:45:06;;;;;;;1.92;0.50;;;6.10;99.90;;;;;;5032443;28;20474;-82
2023/04/20 01:47:32;;;;;;;1.30;0.40;;;6.00;99.90;;;;;;5031062;28;20542;-83
2023/04/20 01:49:58;;;;;;;4.70;0.50;;;6.00;99.90;;;;;;5052898;28;20113;-83
2023/04/20 01:52:24;;;;;;;1.17;0.40;;;6.00;99.90;;;;;;5034856;28;20062;-82
2023/04/20 01:54:50;;;;;;;3.83;0.70;;;6.00;99.90;;;;;;5035748;28;20095;-82
2023/04/20 01:57:15;;;;;;;2.90;0.57;;;6.00;99.90;;;;;;5033800;28;20031;-83
2023/04/20 01:59:41;;;;;;;4.32;0.52;;;6.00;99.90;;;;;;5036147;28;20028;-83
2023/04/20 02:02:07;;;;;;;3.15;0.88;;;6.00;99.90;;;;;;5051571;28;20033;-83
2023/04/20 02:04:32;;;;;;;2.42;0.50;;;6.00;99.90;;;;;;5038642;28;20024;-83
2023/04/20 02:06:59;;;;;;;2.92;0.65;;;6.00;99.90;;;;;;5035762;28;20028;-82
2023/04/20 02:09:24;;;;;;;1.45;0.50;;;6.00;99.90;;;;;;5035505;28;20020;-82
2023/04/20 02:11:50;;;;;;;2.67;0.65;;;6.00;99.90;;;;;;5039536;28;20112;-83
2023/04/20 02:14:16;;;;;;;1.65;0.50;;;6.10;99.90;;;;;;5034126;28;20074;-82
2023/04/20 02:16:41;;;;;;;2.55;0.70;;;6.10;99.90;;;;;;5037495;28;20058;-82
2023/04/20 02:19:08;;;;;;;1.90;0.50;;;6.20;99.90;;;;;;5053445;28;20024;-82
2023/04/20 02:21:34;;;;;;;2.30;0.50;;;6.20;99.90;;;;;;5035874;28;20041;-82
2023/04/20 02:24:00;;;;;;;2.65;0.60;;;6.20;99.90;;;;;;5033629;28;20031;-81
2023/04/20 02:26:26;;;;;;;3.65;0.60;;;6.30;99.90;;;;;;5063722;28;20553;-82
2023/04/20 02:28:52;;;;;;;2.35;0.70;;;6.40;99.90;;;;;;5034936;28;20036;-82
2023/04/20 02:31:18;;;;;;;4.03;1.17;;;6.40;99.90;;;;;;5053514;28;20492;-82
2023/04/20 02:33:44;;;;;;;1.73;0.50;;;6.40;99.90;;;;;;5048149;28;20029;-82
2023/04/20 02:36:09;;;;;;;1.92;0.50;;;6.50;99.90;;;;;;5037486;28;20033;-83
2023/04/20 02:38:36;;;;;;;3.40;0.75;;;6.50;99.90;;;;;;5050104;28;20137;-82
2023/04/20 02:41:02;;;;;;;1.55;0.60;;;6.50;99.90;;;;;;5036142;28;20029;-83
2023/04/20 02:43:28;;;;;;;2.30;0.60;;;6.50;99.90;;;;;;5051564;28;20021;-82
2023/04/20 02:45:54;;;;;;;2.78;1.00;;;6.60;99.90;;;;;;5036789;28;20142;-81
2023/04/20 02:48:21;;;;;;;1.67;0.60;;;6.60;99.90;;;;;;5034544;28;20562;-83
2023/04/20 02:50:47;;;;;;;2.30;0.60;;;6.60;99.90;;;;;;5035060;28;20040;-83
2023/04/20 02:53:18;;;;;;;3.28;0.80;;;6.60;99.90;;;;;;5036958;28;20385;-82
2023/04/20 02:55:49;;;;;;;2.33;0.80;;;6.60;99.90;;;;;;5035869;28;20032;-83
2023/04/20 02:58:30;;;;;;;;;;;6.70;99.90;;;;;;5036350;28;20096;-82
2023/04/20 03:01:20;;;;;;;2.15;0.75;;;6.70;99.90;;;;;;5033567;28;20081;-82
2023/04/20 03:03:49;;;;;;;2.95;0.73;;;6.70;99.90;;;;;;5031792;28;20143;-82
2023/04/20 03:06:15;;;;;;;2.97;0.77;;;6.70;99.90;;;;;;5053840;28;20062;-82
2023/04/20 03:08:46;;;;;;;2.45;0.80;;;6.70;99.90;;;;;;5052427;28;20075;-84
2023/04/20 03:11:30;;;;;;;3.63;0.60;;;6.70;99.90;;;;;;5050489;28;20094;-83
2023/04/20 03:13:56;;;;;;;1.45;0.60;;;6.70;99.90;;;;;;5030478;28;20017;-82
2023/04/20 03:16:22;;;;;;;2.65;0.68;;;6.80;99.90;;;;;;5035702;28;20032;-82
2023/04/20 03:18:50;;;;;;;2.33;0.70;;;6.80;99.90;;;;;;5047125;28;20031;-81
2023/04/20 03:21:16;;;;;;;1.63;0.60;;;6.80;99.90;;;;;;5033679;28;20031;-82
2023/04/20 03:23:42;;;;;;;4.38;0.60;;;6.80;99.90;;;;;;5033388;28;20033;-82
2023/04/20 03:26:08;;;;;;;1.88;0.60;;;6.80;99.90;;;;;;5037959;28;20076;-82
2023/04/20 03:28:41;;;;;;;1.42;0.50;;;6.80;99.90;;;;;;5053696;28;20190;-83
2023/04/20 03:31:10;;;;;;;1.80;0.80;;;6.80;99.90;;;;;;5064211;28;20137;-82
2023/04/20 03:33:35;;;;;;;3.08;0.60;;;6.80;99.90;;;;;;5065124;28;20112;-83
2023/04/20 03:36:03;;;;;;;1.90;0.68;;;6.80;99.90;;;;;;5055948;28;20481;-82
2023/04/20 03:38:29;;;;;;;3.45;0.80;;;6.80;99.90;;;;;;5035504;28;20028;-83
2023/04/20 03:40:55;;;;;;;3.33;0.75;;;6.90;99.90;;;;;;5034679;28;20033;-82
2023/04/20 03:43:21;;;;;;;2.80;0.77;;;6.90;99.90;;;;;;5039772;28;20035;-83
2023/04/20 03:45:46;;;;;;;2.42;0.70;;;6.90;99.90;;;;;;5039879;28;20032;-83
2023/04/20 03:48:15;;;;;;;2.17;0.60;;;6.90;99.90;;;;;;5034545;28;20422;-83
2023/04/20 03:50:41;;;;;;;2.75;0.70;;;6.90;99.90;;;;;;5051602;28;20099;-83
2023/04/20 03:53:07;;;;;;;1.83;0.57;;;6.90;99.90;;;;;;5039569;28;20481;-82
2023/04/20 03:55:32;;;;;;;1.95;0.50;;;6.90;99.90;;;;;;5054417;28;20107;-82
2023/04/20 03:58:07;;;;;;;1.45;0.50;;;7.00;99.90;;;;;;5032932;28;20016;-82
2023/04/20 04:00:59;;;;;;;1.60;0.50;;;7.00;99.90;;;;;;5035342;28;20032;-82
2023/04/20 04:03:25;;;;;;;2.22;0.50;;;7.00;99.90;;;;;;5030857;28;20124;-82
2023/04/20 04:05:50;;;;;;;3.05;0.82;;;7.00;99.90;;;;;;5038575;28;20166;-82
2023/04/20 04:08:16;;;;;;;2.28;0.90;;;7.10;99.90;;;;;;5032683;28;20039;-82
2023/04/20 04:10:42;;;;;;;1.50;0.50;;;7.00;99.90;;;;;;5036492;28;20040;-83
2023/04/20 04:13:08;;;;;;;1.52;0.70;;;7.10;99.90;;;;;;5037416;28;20739;-82
2023/04/20 04:15:33;;;;;;;1.90;0.60;;;7.10;99.90;;;;;;5066946;28;20035;-83
2023/04/20 04:18:08;;;;;;;2.10;0.75;;;7.10;99.90;;;;;;5054771;28;20027;-83
2023/04/20 04:20:35;;;;;;;3.40;1.23;;;7.20;99.90;;;;;;5065261;28;20070;-83
2023/04/20 04:23:01;;;;;;;3.15;0.70;;;7.10;99.90;;;;;;5041396;28;20021;-83
2023/04/20 04:25:39;;;;;;;2.33;0.70;;;7.20;99.90;;;;;;5049877;28;20060;-83
2023/04/20 04:28:06;;;;;;;2.60;0.55;;;7.20;99.90;;;;;;5061827;28;20056;-83
2023/04/20 04:30:34;;;;;;;1.92;0.50;;;7.20;99.90;;;;;;5065691;28;20062;-82
2023/04/20 04:33:03;;;;;;;2.22;0.73;;;7.20;99.90;;;;;;5069145;28;20025;-84
2023/04/20 04:35:30;;;;;;;1.70;0.60;;;7.30;99.90;;;;;;5055729;28;20020;-83
2023/04/20 04:37:56;;;;;;;2.92;1.08;;;7.30;99.90;;;;;;5039746;28;20124;-82
2023/04/20 04:40:22;;;;;;;5.85;0.80;;;7.30;99.90;;;;;;5043218;28;20111;-83
2023/04/20 04:42:51;;;;;;;1.42;0.60;;;7.40;99.90;;;;;;5051644;28;20029;-83
2023/04/20 04:45:17;;;;;;;3.58;1.00;;;7.40;99.90;;;;;;5033022;28;20079;-82
2023/04/20 04:47:44;;;;;;;4.43;1.00;;;7.40;99.90;;;;;;5038337;28;20052;-82
2023/04/20 04:50:10;;;;;;;4.95;1.25;;;7.40;99.90;;;;;;5038866;28;20067;-83
2023/04/20 04:52:36;;;;;;;4.18;1.20;;;7.50;99.90;;;;;;5041784;28;20067;-82
2023/04/20 04:55:02;;;;;;;3.25;1.00;;;7.50;99.90;;;;;;5036028;28;20036;-83
2023/04/20 04:57:28;;;;;;;3.33;1.00;;;7.50;99.90;;;;;;5064713;28;20501;-83
2023/04/20 04:59:54;;;;;;;3.30;1.13;;;7.50;99.90;;;;;;5051839;28;20033;-83
2023/04/20 05:02:19;;;;;;;3.70;1.25;;;7.50;99.90;;;;;;5052171;28;20028;-82
2023/04/20 05:04:45;;;;;;;5.03;1.45;;;7.50;99.90;;;;;;5059740;28;20493;-82
2023/04/20 05:07:12;;;;;;;2.58;0.93;;;7.50;99.90;;;;;;5037433;28;20033;-83
2023/04/20 05:09:39;;;;;;;2.17;0.80;;;7.50;99.90;;;;;;5033693;28;20539;-83
2023/04/20 05:12:05;;;;;;;5.30;1.48;;;7.50;99.90;;;;;;5036699;28;20028;-83
2023/04/20 05:14:31;;;;;;;4.00;1.10;;;7.50;99.90;;;;;;5056669;28;20033;-83
2023/04/20 05:16:58;;;;;;;2.80;0.90;;;7.50;99.90;;;;;;5039463;28;20427;-83
2023/04/20 05:19:24;;;;;;;4.00;0.90;;;7.50;99.90;;;;;;5030993;28;20029;-84
2023/04/20 05:21:50;;;;;;;2.42;0.95;;;7.50;99.90;;;;;;5035196;28;20473;-84
2023/04/20 05:24:16;;;;;;;2.33;0.85;;;7.50;99.90;;;;;;4996070;28;20060;-81
2023/04/20 05:26:42;;;;;;;3.67;0.93;;;7.50;99.90;;;;;;5023638;28;20047;-82
2023/04/20 05:29:09;;;;;;;2.17;0.85;;;7.50;99.90;;;;;;5026628;28;20444;-82
2023/04/20 05:31:35;;;;;;;4.78;1.10;;;7.60;99.90;;;;;;5044236;28;20052;-82
2023/04/20 05:34:03;;;;;;;3.80;0.70;;;7.50;99.90;;;;;;5027145;28;20096;-82
2023/04/20 05:36:29;;;;;;;3.85;0.90;;;7.60;99.90;;;;;;5043483;28;22012;-82
2023/04/20 05:38:55;;;;;;;3.30;0.77;;;7.60;99.90;;;;;;5027873;28;20462;-83
2023/04/20 05:41:26;;;;;;;2.53;0.70;;;7.60;99.90;;;;;;5028041;28;20032;-82
2023/04/20 05:43:53;;;;;;;1.80;0.63;;;7.60;99.90;;;;;;5026512;28;20036;-83
2023/04/20 05:46:19;;;;;;;2.55;0.82;;;7.70;99.90;;;;;;5025407;28;20494;-83
2023/04/20 05:48:45;;;;;;;2.42;0.70;;;7.80;99.90;;;;;;5027771;28;20056;-83
2023/04/20 05:51:11;;;;;;;3.72;0.90;;;7.90;99.90;;;;;;5029333;28;20089;-83
2023/04/20 05:53:36;;;;;;;2.50;0.60;;;8.10;99.90;;;;;;5026813;28;20065;-82
2023/04/20 05:56:03;;;;;;;2.97;0.68;;;8.30;99.90;;;;;;5025820;28;20040;-82
2023/04/20 05:58:32;;;;;;;3.72;0.65;;;8.20;99.90;;;;;;5027889;28;20445;-81
2023/04/20 06:00:57;;;;;;;2.10;0.70;;;8.20;99.90;;;;;;5028387;28;20108;-82
2023/04/20 06:03:23;;;;;;;4.65;1.00;;;8.20;99.90;;;;;;5024455;28;20028;-83
2023/04/20 06:05:50;;;;;;;3.03;1.02;;;8.10;99.90;;;;;;5042530;28;20560;-82
2023/04/20 06:08:16;;;;;;;2.33;0.90;;;8.10;99.90;;;;;;5027026;28;20096;-82
2023/04/20 06:10:42;;;;;;;3.38;0.68;;;8.10;99.90;;;;;;5060524;28;20046;-82
2023/04/20 06:13:07;;;;;;;2.40;0.70;;;8.10;99.90;;;;;;5043595;28;20032;-83
2023/04/20 06:15:33;;;;;;;3.33;0.82;;;8.20;99.90;;;;;;5039334;28;20036;-83
2023/04/20 06:18:00;;;;;;;2.95;0.90;;;8.20;99.90;;;;;;5027613;28;20056;-82
2023/04/20 06:20:26;;;;;;;3.72;0.70;;;8.30;99.90;;;;;;5043796;28;20037;-81
2023/04/20 06:22:52;;;;;;;2.78;0.68;;;8.40;99.90;;;;;;5026543;28;20093;-82
2023/04/20 06:25:17;;;;;;;2.00;0.65;;;8.50;99.90;;;;;;5015358;28;20055;-82
2023/04/20 06:27:43;;;;;;;4.25;1.00;;;8.50;99.90;;;;;;5027482;28;20053;-83
2023/04/20 06:30:09;;;;;;;3.40;0.80;;;8.40;99.90;;;;;;5026480;28;20135;-83
2023/04/20 06:32:36;;;;;;;3.05;0.88;;;8.40;99.90;;;;;;5041805;28;20044;-83
2023/04/20 06:35:03;;;;;;;3.28;1.00;;;8.30;99.90;;;;;;5026175;28;20170;-83
2023/04/20 06:37:29;;;;;;;3.53;0.70;;;8.30;99.90;;;;;;5043060;28;20083;-82
2023/04/20 06:39:54;;;;;;;3.90;1.00;;;8.40;99.90;;;;;;5039913;28;20671;-82
2023/04/20 06:42:21;;;;;;;2.33;0.90;;;8.40;99.90;;;;;;5026613;28;20123;-83
2023/04/20 06:44:46;;;;;;;2.55;1.00;;;8.30;99.90;;;;;;5041956;28;20045;-82
2023/04/20 06:47:12;;;;;;;3.33;0.80;;;8.30;99.90;;;;;;5025853;28;20072;-82
2023/04/20 06:49:38;;;;;;;2.53;0.90;;;8.30;99.90;;;;;;5025901;28;20186;-84
2023/04/20 06:52:04;;;;;;;2.78;0.88;;;8.20;99.90;;;;;;5025468;28;20460;-82
2023/04/20 06:54:31;;;;;;;3.15;0.88;;;8.20;99.90;;;;;;5042143;28;20090;-81
2023/04/20 06:56:57;;;;;;;5.53;1.38;;;8.20;99.90;;;;;;5046189;28;20480;-84
2023/04/20 06:59:22;;;;;;;3.05;1.05;;;8.10;99.90;;;;;;5029259;28;20100;-84
2023/04/20 07:01:48;;;;;;;3.15;1.17;;;8.10;99.90;;;;;;5064682;28;20416;-79
2023/04/20 07:04:14;;;;;;;3.28;1.10;;;8.00;99.90;;;;;;5047443;28;20039;-83
2023/04/20 07:06:39;;;;;;;3.42;0.98;;;8.10;99.90;;;;;;5044884;28;20085;-83
2023/04/20 07:09:07;;;;;;;2.33;0.95;;;8.20;99.90;;;;;;5062948;28;20504;-82
2023/04/20 07:11:32;;;;;;;2.78;0.75;;;8.20;99.90;;;;;;5027915;28;20155;-82
2023/04/20 07:13:58;;;;;;;2.45;0.93;;;8.20;99.90;;;;;;5045068;28;20036;-82
2023/04/20 07:16:24;;;;;;;2.67;0.90;;;8.20;99.90;;;;;;5042011;28;20036;-82
2023/04/20 07:18:49;;;;;;;3.78;1.20;;;8.30;99.90;;;;;;5029015;28;20028;-82
2023/04/20 07:21:15;;;;;;;3.22;1.00;;;8.90;99.90;;;;;;5029191;28;20032;-83
2023/04/20 07:23:41;;;;;;;2.90;0.70;;;9.20;99.90;;;;;;5030543;28;20028;-82
2023/04/20 07:26:07;;;;;;;2.38;0.80;;;9.10;99.90;;;;;;5018252;28;20066;-83
2023/04/20 07:28:33;;;;;;;3.00;1.00;;;9.10;99.90;;;;;;5017691;28;20897;-82
2023/04/20 07:30:58;;;;;;;3.03;1.08;;;9.00;99.90;;;;;;5033992;28;20651;-83
2023/04/20 07:33:24;;;;;;;4.65;1.10;;;9.00;99.90;;;;;;5009420;28;20088;-81
2023/04/20 07:35:50;;;;;;;3.03;0.90;;;9.10;99.90;;;;;;5009227;28;20132;-83
2023/04/20 07:38:16;;;;;;;2.88;0.80;;;9.30;99.90;;;;;;5016987;28;20448;-83
2023/04/20 07:40:42;;;;;;;2.45;1.10;;;9.40;99.90;;;;;;5016027;28;20040;-82
2023/04/20 07:43:07;;;;;;;2.45;0.90;;;9.40;99.90;;;;;;5016388;28;20370;-82
2023/04/20 07:45:33;;;;;;;3.47;1.35;;;9.20;99.90;;;;;;5009215;28;20029;-82
2023/04/20 07:48:01;;;;;;;3.45;1.02;;;9.10;99.90;;;;;;5032484;28;20523;-82
2023/04/20 07:50:26;;;;;;;5.10;1.00;;;9.20;99.90;;;;;;5008467;28;20041;-82
2023/04/20 07:52:52;;;;;;;3.90;1.00;;;9.40;99.90;;;;;;5032084;28;20039;-82
2023/04/20 07:55:18;;;;;;;5.47;0.90;;;9.40;99.90;;;;;;5009846;28;20231;-82
2023/04/20 07:57:44;;;;;;;2.25;0.98;;;9.70;99.90;;;;;;5016587;28;20033;-82
2023/04/20 08:00:11;;;;;;;1.75;0.60;;;9.80;99.90;;;;;;5033814;28;20067;-82
2023/04/20 08:02:39;;;;;;;2.13;0.70;;;9.60;99.90;;;;;;5032742;28;20035;-83
2023/04/20 08:05:07;;;;;;;2.38;0.70;;;9.70;99.90;;;;;;5032837;28;20037;-82
2023/04/20 08:07:32;;;;;;;1.83;0.55;;;9.70;99.90;;;;;;5014061;28;20586;-82
2023/04/20 08:10:00;;;;;;;3.17;1.05;;;9.80;99.90;;;;;;5015878;28;20465;-82
2023/04/20 08:12:25;;;;;;;2.67;0.90;;;9.70;99.90;;;;;;5015351;28;20036;-82
2023/04/20 08:14:51;;;;;;;1.98;0.70;;;9.70;99.90;;;;;;5012917;28;20040;-83
2023/04/20 08:17:17;;;;;;;2.45;0.80;;;9.80;99.90;;;;;;5031119;28;20508;-82
2023/04/20 08:19:42;;;;;;;2.75;0.70;;;9.90;99.90;;;;;;5014440;28;20051;-82
2023/04/20 08:22:11;;;;;;;1.85;0.65;;;9.90;99.90;;;;;;5009817;28;20039;-82
2023/04/20 08:24:37;;;;;;;1.98;0.60;;;9.80;99.90;;;;;;5031740;28;20090;-82
2023/04/20 08:27:02;;;;;;;1.58;0.65;;;9.90;99.90;;;;;;5007006;28;20073;-81
2023/04/20 08:29:28;;;;;;;2.58;0.80;;;9.90;99.90;;;;;;5009900;28;20235;-81
2023/04/20 08:31:53;;;;;;;2.15;0.80;;;9.80;99.90;;;;;;5012463;28;20128;-82
2023/04/20 08:34:19;;;;;;;2.65;0.80;;;9.70;99.90;;;;;;5011335;28;20029;-83
2023/04/20 08:36:45;;;;;;;1.90;0.55;;;9.60;99.90;;;;;;5009003;28;20263;-83
2023/04/20 08:39:14;;;;;;;1.90;0.65;;;9.80;99.90;;;;;;5011598;28;20062;-83
2023/04/20 08:41:40;;;;;;;2.58;0.98;;;9.90;99.90;;;;;;5011234;28;20120;-81
2023/04/20 08:44:09;;;;;;;4.20;0.98;;;9.60;99.90;;;;;;5010378;28;20056;-83
2023/04/20 08:46:36;;;;;;;2.03;0.73;;;9.80;99.90;;;;;;4996616;28;20033;-81
2023/04/20 08:49:02;;;;;;;1.60;0.50;;;9.80;99.90;;;;;;5010576;28;20527;-83
2023/04/20 08:51:31;;;;;;;2.45;0.70;;;9.80;99.90;;;;;;4995028;28;20049;-84
2023/04/20 08:54:04;;;;;;;2.08;0.60;;;9.70;99.90;;;;;;5038235;28;20366;-83
2023/04/20 08:56:38;;;;;;;1.88;0.90;;;9.50;99.90;;;;;;5009708;28;20034;-82
2023/04/20 08:59:04;;;;;;;2.80;0.70;;;9.40;99.90;;;;;;5011207;28;20045;-82
2023/04/20 09:01:31;;;;;;;3.53;0.73;;;9.30;99.90;;;;;;5009466;28;20069;-82
2023/04/20 09:03:58;;;;;;;2.42;0.80;;;9.30;99.90;;;;;;5000650;28;20083;-83
2023/04/20 09:06:24;;;;;;;2.28;0.77;;;9.30;99.90;;;;;;5035688;28;20114;-82
2023/04/20 09:08:50;;;;;;;2.47;1.00;;;9.40;99.90;;;;;;5008874;28;20038;-82
2023/04/20 09:11:28;;;;;;;3.30;0.80;;;9.10;99.90;;;;;;5027069;28;20052;-82
2023/04/20 09:13:58;;;;;;;2.25;1.00;;;8.90;99.90;;;;;;5034521;28;20553;-82
2023/04/20 09:16:24;;;;;;;3.58;0.80;;;9.00;99.90;;;;;;4999637;28;20197;-83
2023/04/20 09:18:55;;;;;;;1.75;0.50;;;8.90;99.90;;;;;;5008727;28;20037;-82
2023/04/20 09:21:22;;;;;;;2.35;0.77;;;9.00;99.90;;;;;;4995257;28;20033;-82
2023/04/20 09:24:02;;;;;;;1.58;0.50;;;9.10;99.90;;;;;;4994863;28;20681;-82
2023/04/20 09:26:33;;;;;;;2.58;0.80;;;9.20;99.90;;;;;;5009570;28;20033;-84
2023/04/20 09:29:02;;;;;;;2.42;0.82;;;9.10;99.90;;;;;;5015796;28;20051;-83
2023/04/20 09:31:28;;;;;;;1.88;0.70;;;9.10;99.90;;;;;;5014489;28;20067;-83
2023/04/20 09:34:00;;;;;;;2.92;0.90;;;9.30;99.90;;;;;;5031384;28;20476;-83
2023/04/20 09:36:39;;;;;;;2.47;1.00;;;9.40;99.90;;;;;;5013375;28;20040;-83
2023/04/20 09:39:13;;;;;;;1.92;0.70;;;9.50;99.90;;;;;;5032976;28;20032;-83
2023/04/20 09:41:40;;;;;;;1.83;0.82;;;9.70;99.90;;;;;;5015286;28;20129;-82
2023/04/20 09:44:07;;;;;;;1.63;0.70;;;9.90;99.90;;;;;;5016076;28;20604;-82
2023/04/20 09:46:35;;;;;;;2.17;0.80;;;10.20;99.90;;;;;;5001820;28;20128;-82
2023/04/20 09:49:06;;;;;;;2.47;0.90;;;10.10;99.90;;;;;;5031688;28;20029;-82
2023/04/20 09:51:37;;;;;;;1.73;0.70;;;10.00;99.90;;;;;;5031534;28;20377;-84
2023/04/20 09:54:05;;;;;;;2.50;0.80;;;10.10;99.90;;;;;;5030771;28;20039;-82
2023/04/20 09:56:32;;;;;;;3.55;1.20;;;10.10;99.90;;;;;;5013344;28;20040;-83
2023/04/20 09:58:59;;;;;;;2.90;1.02;;;10.00;99.90;;;;;;5015047;28;20120;-83
2023/04/20 10:01:26;;;;;;;2.13;0.60;;;10.10;99.90;;;;;;5014805;28;20124;-83
2023/04/20 10:03:55;;;;;;;1.52;0.50;;;10.30;99.90;;;;;;5015220;28;20544;-81
2023/04/20 10:06:29;;;;;;;1.80;0.75;;;10.60;99.90;;;;;;5012607;28;20064;-84
2023/04/20 10:08:56;;;;;;;2.60;1.02;;;10.30;99.90;;;;;;5014481;28;20059;-81
2023/04/20 10:11:26;;;;;;;2.65;0.90;;;10.50;99.90;;;;;;5050786;28;20404;-83
2023/04/20 10:13:52;;;;;;;2.28;0.60;;;10.70;99.90;;;;;;5012347;28;20071;-82
2023/04/20 10:16:19;;;;;;;2.58;0.70;;;10.90;99.90;;;;;;5011820;28;20076;-84
2023/04/20 10:19:02;;;;;;;3.17;0.80;;;10.90;99.90;;;;;;5017072;28;20032;-82
2023/04/20 10:21:47;;;;;;;2.63;0.90;;;11.10;99.90;;;;;;5015941;28;20033;-82
2023/04/20 10:24:13;;;;;;;2.47;0.82;;;11.30;99.90;;;;;;5050346;28;20037;-81
2023/04/20 10:26:46;;;;;;;1.80;0.80;;;12.10;99.90;;;;;;5047933;28;20178;-83
2023/04/20 10:29:26;;;;;;;2.22;1.02;;;12.40;99.90;;;;;;5032385;28;20041;-84
2023/04/20 10:31:53;;;;;;;1.88;0.95;;;12.20;99.90;;;;;;5020229;28;20048;-83
2023/04/20 10:34:32;;;;;;;2.08;1.00;;;12.30;99.90;;;;;;5020194;28;20040;-83
2023/04/20 10:37:09;;;;;;;2.60;1.10;;;12.10;99.90;;;;;;5018566;28;20684;-84
2023/04/20 10:39:36;;;;;;;1.92;0.90;;;11.70;99.90;;;;;;5019755;28;20041;-83
2023/04/20 10:42:02;;;;;;;3.20;1.02;;;11.60;99.90;;;;;;5019342;28;20068;-83
2023/04/20 10:44:29;;;;;;;2.97;1.23;;;11.50;99.90;;;;;;5018593;28;20036;-80
2023/04/20 10:46:55;;;;;;;2.03;0.98;;;11.40;99.90;;;;;;5006147;28;20528;-81
2023/04/20 10:49:30;;;;;;;3.47;1.20;;;11.00;99.90;;;;;;5020032;28;20036;-82
2023/04/20 10:51:56;;;;;;;2.58;1.20;;;10.70;99.90;;;;;;5024578;28;20491;-80
2023/04/20 10:54:22;;;;;;;4.53;1.08;;;10.70;99.90;;;;;;5027178;28;20496;-83
2023/04/20 10:56:50;;;;;;;1.90;0.82;;;10.50;99.90;;;;;;5017830;28;20844;-82
2023/04/20 10:59:23;;;;;;;2.92;0.98;;;10.70;99.90;;;;;;5017758;28;20089;-82
2023/04/20 11:01:50;;;;;;;2.10;0.60;;;11.80;99.90;;;;;;5034141;28;20033;-82
2023/04/20 11:04:16;;;;;;;2.25;0.70;;;12.10;99.90;;;;;;5018244;28;20497;-82
2023/04/20 11:06:47;;;;;;;2.20;0.70;;;11.60;99.90;;;;;;5016370;28;20059;-83
2023/04/20 11:09:22;;;;;;;2.72;0.82;;;11.40;99.90;;;;;;5018772;28;20033;-82
2023/04/20 11:12:02;;;;;;;2.92;1.13;;;11.50;99.90;;;;;;5017752;28;20806;-83
2023/04/20 11:14:29;;;;;;;;;;;11.50;99.90;;;;;;5016490;28;20032;-83
2023/04/20 11:16:54;;;;;;;2.35;0.70;;;11.50;99.90;;;;;;5050827;28;19912;-81
2023/04/20 11:19:28;;;;;;;3.28;1.00;;;11.60;99.90;;;;;;5032583;28;20044;-83
2023/04/20 11:21:54;;;;;;;1.70;0.70;;;11.70;99.90;;;;;;5015195;28;20013;-83
2023/04/20 11:24:24;;;;;;;2.38;1.00;;;11.70;99.90;;;;;;5016402;28;20070;-83
2023/04/20 11:26:53;;;;;;;6.25;1.00;;;11.70;99.90;;;;;;5029532;28;20052;-82
2023/04/20 11:29:34;;;;;;;2.78;1.42;;;11.60;99.90;;;;;;5015549;28;20037;-83
2023/04/20 11:32:03;;;;;;;2.63;0.98;;;11.40;99.90;;;;;;5015229;28;20979;-82
2023/04/20 11:34:29;;;;;;;2.00;1.00;;;11.40;99.90;;;;;;5019469;28;20031;-83
2023/04/20 11:36:59;;;;;;;3.88;1.42;;;11.30;99.90;;;;;;5031173;28;20029;-82
2023/04/20 11:39:26;;;;;;;2.90;0.82;;;11.30;99.90;;;;;;5043844;28;20025;-81
2023/04/20 11:41:53;;;;;;;4.22;1.00;;;11.20;99.90;;;;;;5028592;28;20124;-81
2023/04/20 11:44:22;;;;;;;4.05;1.73;;;11.20;99.90;;;;;;5044880;28;20029;-83
2023/04/20 11:46:49;;;;;;;3.00;1.67;;;11.00;99.90;;;;;;5045703;28;20108;-82
2023/04/20 11:49:19;;;;;;;2.53;1.15;;;11.00;99.90;;;;;;5032248;28;20044;-83
2023/04/20 11:51:48;;;;;;;2.10;1.10;;;11.00;99.90;;;;;;5032780;28;20068;-82
2023/04/20 11:54:14;;;;;;;2.05;0.93;;;11.10;99.90;;;;;;5029158;28;20024;-83
2023/04/20 11:56:41;;;;;;;3.10;1.20;;;11.30;99.90;;;;;;5030517;28;20468;-82
2023/04/20 11:59:07;;;;;;;4.60;1.52;;;11.40;99.90;;;;;;5048215;28;20032;-83
2023/04/20 12:01:34;;;;;;;2.75;1.65;;;11.10;99.90;;;;;;5035552;28;20058;-84
2023/04/20 12:04:00;;;;;;;3.22;1.70;;;10.90;99.90;;;;;;5046173;28;20517;-82
2023/04/20 12:06:32;;;;;;;2.55;1.52;;;10.70;99.90;;;;;;5046326;28;20033;-82
2023/04/20 12:08:59;;;;;;;2.38;1.10;;;10.70;99.90;;;;;;5030962;28;20017;-82
2023/04/20 12:11:25;;;;;;;2.70;1.52;;;10.70;99.90;;;;;;5026689;28;20041;-81
2023/04/20 12:13:51;;;;;;;2.38;0.90;;;10.50;99.90;;;;;;5043270;28;20032;-83
2023/04/20 12:16:16;;;;;;;2.83;1.10;;;10.60;99.90;;;;;;5030285;28;20032;-81
2023/04/20 12:18:42;;;;;;;2.58;1.70;;;10.60;99.90;;;;;;5043444;28;20500;-83
2023/04/20 12:21:08;;;;;;;3.08;1.90;;;10.80;99.90;;;;;;5045283;28;20169;-82
2023/04/20 12:23:37;;;;;;;4.20;2.08;;;10.70;99.90;;;;;;5043436;28;20032;-83
2023/04/20 12:26:04;;;;;;;2.80;1.73;;;10.70;99.90;;;;;;5027660;28;20074;-83
2023/04/20 12:28:31;;;;;;;2.70;1.48;;;10.90;99.90;;;;;;5043840;28;20041;-82
2023/04/20 12:30:56;;;;;;;2.53;1.15;;;11.10;99.90;;;;;;5044256;28;20078;-83
2023/04/20 12:33:22;;;;;;;2.85;1.63;;;11.50;99.90;;;;;;5027516;28;20053;-83
2023/04/20 12:35:48;;;;;;;2.88;1.70;;;11.70;99.90;;;;;;5047040;28;20036;-84
2023/04/20 12:38:13;;;;;;;2.40;1.30;;;11.80;99.90;;;;;;5028650;28;20029;-82
2023/04/20 12:40:39;;;;;;;3.22;1.40;;;11.60;99.90;;;;;;5028691;28;20044;-83
2023/04/20 12:43:05;;;;;;;2.90;1.60;;;11.70;99.90;;;;;;5028297;28;20036;-82
2023/04/20 12:45:31;;;;;;;2.45;1.85;;;11.60;99.90;;;;;;5029272;28;20614;-83
2023/04/20 12:47:57;;;;;;;2.72;1.30;;;11.50;99.90;;;;;;5032495;28;20408;-81
2023/04/20 12:50:23;;;;;;;2.83;1.77;;;11.50;99.90;;;;;;5046667;28;20033;-83
2023/04/20 12:52:50;;;;;;;3.88;1.73;;;11.50;99.90;;;;;;5027771;28;20103;-83
2023/04/20 12:55:17;;;;;;;3.25;1.88;;;11.70;99.90;;;;;;5029552;28;20048;-82